Time;durP1;ratioP1;P1;durP2;ratioP2;P2;SDS_P1;SDS_P2;PMS_P1;PMS_P2;Temp;Humidity;BMP_temperature;BMP_pressure;BME280_temperature;BME280_humidity;BME280_pressure;Samples;Min_cycle;Max_cycle;Signal;HPM_P1;HPM_P2
2023/04/18 00:00:09;;;;;;;;;;;;;;;;;;5092546;28;1741;-39
2023/04/18 00:02:42;;;;;;;;;;;;;;;;;;5092560;28;1504;-39
2023/04/18 00:05:11;;;;;;;;;;;;;;;;;;5092598;28;2130;-39
2023/04/18 00:07:38;;;;;;;;;;;;;;;;;;5092734;28;1879;-39
2023/04/18 00:10:06;;;;;;;;;;;;;;;;;;5092378;28;2088;-40
2023/04/18 00:12:33;;;;;;;;;;;;;;;;;;5092564;28;1732;-40
2023/04/18 00:15:01;;;;;;;;;;;;;;;;;;5092559;28;1795;-40
2023/04/18 00:17:29;;;;;;;;;;;;;;;;;;5092224;28;1974;-40
2023/04/18 00:19:57;;;;;;;;;;;;;;;;;;5092675;28;1876;-40
2023/04/18 00:22:24;;;;;;;;;;;;;;;;;;5092601;28;1969;-40
2023/04/18 00:24:52;;;;;;;;;;;;;;;;;;5092215;28;2157;-47
2023/04/18 00:27:19;;;;;;;;;;;;;;;;;;5092108;28;1691;-41
2023/04/18 00:29:46;;;;;;;;;;;;;;;;;;5092040;28;1961;-40
2023/04/18 00:32:15;;;;;;;;;;;;;;;;;;5091813;28;1607;-40
2023/04/18 00:34:42;;;;;;;;;;;;;;;;;;5092083;28;1661;-40
2023/04/18 00:37:11;;;;;;;;;;;;;;;;;;5090912;28;1839;-46
2023/04/18 00:39:40;;;;;;;;;;;;;;;;;;5107361;28;1905;-39
2023/04/18 00:42:07;;;;;;;;;;;;;;;;;;5091718;28;2185;-40
2023/04/18 00:44:35;;;;;;;;;;;;;;;;;;5091789;28;1665;-42
2023/04/18 00:47:02;;;;;;;;;;;;;;;;;;5101792;27;1760;-39
2023/04/18 00:49:29;;;;;;;;;;;;;;;;;;5132994;27;1808;-40
2023/04/18 00:51:56;;;;;;;;;;;;;;;;;;5126557;27;2227;-40
2023/04/18 00:54:24;;;;;;;;;;;;;;;;;;5112100;28;1932;-40
2023/04/18 00:56:52;;;;;;;;;;;;;;;;;;5112064;28;1519;-41
2023/04/18 00:59:19;;;;;;;;;;;;;;;;;;5111945;28;2213;-39
2023/04/18 01:01:46;;;;;;;;;;;;;;;;;;5111719;28;1958;-39
2023/04/18 01:04:14;;;;;;;;;;;;;;;;;;5093793;28;1400;-38
2023/04/18 01:06:42;;;;;;;;;;;;;;;;;;5111677;28;1906;-58
2023/04/18 01:09:10;;;;;;;;;;;;;;;;;;5112366;28;2149;-47
2023/04/18 01:11:37;;;;;;;;;;;;;;;;;;5093115;28;2122;-40
2023/04/18 01:14:05;;;;;;;;;;;;;;;;;;5093743;28;1939;-47
2023/04/18 01:16:35;;;;;;;;;;;;;;;;;;5111847;28;1987;-39
2023/04/18 01:19:03;;;;;;;;;;;;;;;;;;5111527;28;1944;-40
2023/04/18 01:21:36;;;;;;;;;;;;;;;;;;5093168;28;1698;-53
2023/04/18 01:24:06;;;;;;;;;;;;;;;;;;5093128;28;2076;-39
2023/04/18 01:26:33;;;;;;;;;;;;;;;;;;5110177;28;1816;-40
2023/04/18 01:29:03;;;;;;;;;;;;;;;;;;5093147;28;2398;-40
2023/04/18 01:31:35;;;;;;;;;;;;;;;;;;5111696;28;2104;-56
2023/04/18 01:34:03;;;;;;;;;;;;;;;;;;5111782;28;1882;-40
2023/04/18 01:36:30;;;;;;;;;;;;;;;;;;5111825;28;2128;-40
2023/04/18 01:38:58;;;;;;;;;;;;;;;;;;5093028;28;1996;-39
2023/04/18 01:41:27;;;;;;;;;;;;;;;;;;5111481;28;2213;-40
2023/04/18 01:43:55;;;;;;;;;;;;;;;;;;5093215;28;2026;-48
2023/04/18 01:46:22;;;;;;;;;;;;;;;;;;5111256;28;1967;-39
2023/04/18 01:48:49;;;;;;;;;;;;;;;;;;5131502;28;2089;-41
2023/04/18 01:51:18;;;;;;;;;;;;;;;;;;5113269;28;1930;-39
2023/04/18 01:53:46;;;;;;;;;;;;;;;;;;5113384;28;2132;-40
2023/04/18 01:56:13;;;;;;;;;;;;;;;;;;5113313;28;1847;-42
2023/04/18 01:58:40;;;;;;;;;;;;;;;;;;5113758;28;2099;-40
2023/04/18 02:01:07;;;;;;;;;;;;;;;;;;5112893;28;1975;-41
2023/04/18 02:03:38;;;;;;;;;;;;;;;;;;5131876;28;1738;-40
2023/04/18 02:06:06;;;;;;;;;;;;;;;;;;5113081;28;2352;-40
2023/04/18 02:08:34;;;;;;;;;;;;;;;;;;5113439;28;2038;-40
2023/04/18 02:11:04;;;;;;;;;;;;;;;;;;5131877;28;1846;-40
2023/04/18 02:13:32;;;;;;;;;;;;;;;;;;5134485;27;2030;-42
2023/04/18 02:15:59;;;;;;;;;;;;;;;;;;5135822;27;2063;-41
2023/04/18 02:18:26;;;;;;;;;;;;;;;;;;5135740;27;1902;-40
2023/04/18 02:20:53;;;;;;;;;;;;;;;;;;5117195;27;1965;-40
2023/04/18 02:23:21;;;;;;;;;;;;;;;;;;5135519;27;1847;-40
2023/04/18 02:25:48;;;;;;;;;;;;;;;;;;5117160;27;1354;-40
2023/04/18 02:28:16;;;;;;;;;;;;;;;;;;5135296;27;2374;-40
2023/04/18 02:30:43;;;;;;;;;;;;;;;;;;5135559;27;1854;-40
2023/04/18 02:33:10;;;;;;;;;;;;;;;;;;5135098;27;2234;-41
2023/04/18 02:35:38;;;;;;;;;;;;;;;;;;5134268;27;2127;-39
2023/04/18 02:38:05;;;;;;;;;;;;;;;;;;5115132;28;1910;-40
2023/04/18 02:40:35;;;;;;;;;;;;;;;;;;5096609;28;2124;-40
2023/04/18 02:43:02;;;;;;;;;;;;;;;;;;5114689;28;1992;-40
2023/04/18 02:45:29;;;;;;;;;;;;;;;;;;5114590;28;2204;-40
2023/04/18 02:47:58;;;;;;;;;;;;;;;;;;5105954;28;1984;-40
2023/04/18 02:50:28;;;;;;;;;;;;;;;;;;5114418;28;1684;-39
2023/04/18 02:52:56;;;;;;;;;;;;;;;;;;5103001;27;1740;-39
2023/04/18 02:55:31;;;;;;;;;;;;;;;;;;5116541;27;1653;-40
2023/04/18 02:58:00;;;;;;;;;;;;;;;;;;5116551;27;2050;-40
2023/04/18 03:00:45;;;;;;;;;;;;;;;;;;5134910;27;2113;-40
2023/04/18 03:03:23;;;;;;;;;;;;;;;;;;5116425;27;1649;-40
2023/04/18 03:06:14;;;;;;;;;;;;;;;;;;5095680;27;1729;-40
2023/04/18 03:08:41;;;;;;;;;;;;;;;;;;5116275;27;1488;-40
2023/04/18 03:11:09;;;;;;;;;;;;;;;;;;5134590;27;1469;-40
2023/04/18 03:13:36;;;;;;;;;;;;;;;;;;5116031;27;1585;-39
2023/04/18 03:16:04;;;;;;;;;;;;;;;;;;5116132;27;2119;-40
2023/04/18 03:18:32;;;;;;;;;;;;;;;;;;5115782;27;2037;-40
2023/04/18 03:21:01;;;;;;;;;;;;;;;;;;5116048;27;1369;-40
2023/04/18 03:23:30;;;;;;;;;;;;;;;;;;5115606;27;1520;-41
2023/04/18 03:26:01;;;;;;;;;;;;;;;;;;5114931;27;2076;-40
2023/04/18 03:28:30;;;;;;;;;;;;;;;;;;5115492;27;1539;-40
2023/04/18 03:30:58;;;;;;;;;;;;;;;;;;5115739;27;2362;-39
2023/04/18 03:33:29;;;;;;;;;;;;;;;;;;5115704;27;1718;-41
2023/04/18 03:36:05;;;;;;;;;;;;;;;;;;5115634;27;1612;-50
2023/04/18 03:38:33;;;;;;;;;;;;;;;;;;5115562;27;2014;-39
2023/04/18 03:41:01;;;;;;;;;;;;;;;;;;5134104;27;1815;-40
2023/04/18 03:43:32;;;;;;;;;;;;;;;;;;5115393;27;2119;-41
2023/04/18 03:46:00;;;;;;;;;;;;;;;;;;5111940;28;1746;-42
2023/04/18 03:48:28;;;;;;;;;;;;;;;;;;5105895;28;2118;-41
2023/04/18 03:51:00;;;;;;;;;;;;;;;;;;5094020;28;1673;-40
2023/04/18 03:53:30;;;;;;;;;;;;;;;;;;5091293;28;2126;-40
2023/04/18 03:55:57;;;;;;;;;;;;;;;;;;5091569;28;1861;-40
2023/04/18 03:58:38;;;;;;;;;;;;;;;;;;5105381;28;2263;-41
2023/04/18 04:01:06;;;;;;;;;;;;;;;;;;5113222;28;1939;-41
2023/04/18 04:03:33;;;;;;;;;;;;;;;;;;5113146;28;1565;-43
2023/04/18 04:06:01;;;;;;;;;;;;;;;;;;5113351;28;1984;-41
2023/04/18 04:08:28;;;;;;;;;;;;;;;;;;5111474;28;2229;-46
2023/04/18 04:10:55;;;;;;;;;;;;;;;;;;5112940;28;2028;-41
2023/04/18 04:13:23;;;;;;;;;;;;;;;;;;5111254;28;2060;-41
2023/04/18 04:15:51;;;;;;;;;;;;;;;;;;5111655;28;1762;-42
2023/04/18 04:18:18;;;;;;;;;;;;;;;;;;5112908;28;2143;-40
2023/04/18 04:20:45;;;;;;;;;;;;;;;;;;5111103;28;2108;-41
2023/04/18 04:23:24;;;;;;;;;;;;;;;;;;5111153;28;1660;-42
2023/04/18 04:25:52;;;;;;;;;;;;;;;;;;5111241;28;1766;-42
2023/04/18 04:28:34;;;;;;;;;;;;;;;;;;5111101;28;2090;-40
2023/04/18 04:31:09;;;;;;;;;;;;;;;;;;5111069;28;1772;-56
2023/04/18 04:33:37;;;;;;;;;;;;;;;;;;5110632;28;1850;-41
2023/04/18 04:36:13;;;;;;;;;;;;;;;;;;5110903;28;1380;-43
2023/04/18 04:38:43;;;;;;;;;;;;;;;;;;5110797;28;2051;-40
2023/04/18 04:41:11;;;;;;;;;;;;;;;;;;5112573;28;1724;-51
2023/04/18 04:43:40;;;;;;;;;;;;;;;;;;5110667;28;1937;-53
2023/04/18 04:46:08;;;;;;;;;;;;;;;;;;5110966;28;1362;-41
2023/04/18 04:48:35;;;;;;;;;;;;;;;;;;5110560;28;1722;-45
2023/04/18 04:51:02;;;;;;;;;;;;;;;;;;5112079;28;2009;-40
2023/04/18 04:53:30;;;;;;;;;;;;;;;;;;5111031;28;2268;-41
2023/04/18 04:55:59;;;;;;;;;;;;;;;;;;5093717;28;2124;-40
2023/04/18 04:58:27;;;;;;;;;;;;;;;;;;5093738;28;1811;-40
2023/04/18 05:01:13;;;;;;;;;;;;;;;;;;5112126;28;1854;-41
2023/04/18 05:03:40;;;;;;;;;;;;;;;;;;5093467;28;2032;-40
2023/04/18 05:06:07;;;;;;;;;;;;;;;;;;5111841;28;1907;-41
2023/04/18 05:08:34;;;;;;;;;;;;;;;;;;5111405;28;2254;-40
2023/04/18 05:11:02;;;;;;;;;;;;;;;;;;5111842;28;2102;-40
2023/04/18 05:13:29;;;;;;;;;;;;;;;;;;5111482;28;2087;-40
2023/04/18 05:15:58;;;;;;;;;;;;;;;;;;5111767;28;1856;-61
2023/04/18 05:18:27;;;;;;;;;;;;;;;;;;5111678;28;2024;-41
2023/04/18 05:20:54;;;;;;;;;;;;;;;;;;5111555;28;2159;-41
2023/04/18 05:23:21;;;;;;;;;;;;;;;;;;5111742;28;1761;-41
2023/04/18 05:25:49;;;;;;;;;;;;;;;;;;5111494;28;1621;-51
2023/04/18 05:28:16;;;;;;;;;;;;;;;;;;5111660;28;1499;-41
2023/04/18 05:30:45;;;;;;;;;;;;;;;;;;5111579;28;1511;-40
2023/04/18 05:33:13;;;;;;;;;;;;;;;;;;5110965;28;1805;-41
2023/04/18 05:35:40;;;;;;;;;;;;;;;;;;5111534;28;1809;-41
2023/04/18 05:38:07;;;;;;;;;;;;;;;;;;5111297;28;1953;-42
2023/04/18 05:40:34;;;;;;;;;;;;;;;;;;5111588;28;2003;-41
2023/04/18 05:43:01;;;;;;;;;;;;;;;;;;5111642;28;1680;-41
2023/04/18 05:45:28;;;;;;;;;;;;;;;;;;5093260;28;2180;-41
2023/04/18 05:47:56;;;;;;;;;;;;;;;;;;5113142;28;1707;-61
2023/04/18 05:50:23;;;;;;;;;;;;;;;;;;5115434;28;2002;-41
2023/04/18 05:52:50;;;;;;;;;;;;;;;;;;5115467;28;1674;-42
2023/04/18 05:55:17;;;;;;;;;;;;;;;;;;5115707;28;1454;-44
2023/04/18 05:57:44;;;;;;;;;;;;;;;;;;5115668;28;1945;-43
2023/04/18 06:00:12;;;;;;;;;;;;;;;;;;5097369;28;1985;-40
2023/04/18 06:02:39;;;;;;;;;;;;;;;;;;5115424;28;1846;-51
2023/04/18 06:05:07;;;;;;;;;;;;;;;;;;5115342;28;2080;-40
2023/04/18 06:07:34;;;;;;;;;;;;;;;;;;5115361;28;1738;-57
2023/04/18 06:10:01;;;;;;;;;;;;;;;;;;5115175;28;1833;-41
2023/04/18 06:12:28;;;;;;;;;;;;;;;;;;5115158;28;2310;-40
2023/04/18 06:14:56;;;;;;;;;;;;;;;;;;5114549;28;1902;-41
2023/04/18 06:17:23;;;;;;;;;;;;;;;;;;5114898;28;1785;-46
2023/04/18 06:19:50;;;;;;;;;;;;;;;;;;5115351;28;1928;-41
2023/04/18 06:22:17;;;;;;;;;;;;;;;;;;5115145;28;1995;-40
2023/04/18 06:24:44;;;;;;;;;;;;;;;;;;5115102;28;1928;-40
2023/04/18 06:27:12;;;;;;;;;;;;;;;;;;5114961;28;2291;-40
2023/04/18 06:29:53;;;;;;;;;;;;;;;;;;5126248;27;1638;-42
2023/04/18 06:32:21;;;;;;;;;;;;;;;;;;5135120;27;2004;-52
2023/04/18 06:34:48;;;;;;;;;;;;;;;;;;5135285;27;1866;-41
2023/04/18 06:37:15;;;;;;;;;;;;;;;;;;5134930;27;1822;-54
2023/04/18 06:39:43;;;;;;;;;;;;;;;;;;5134856;27;2062;-40
2023/04/18 06:42:10;;;;;;;;;;;;;;;;;;5134376;27;2199;-57
2023/04/18 06:44:43;;;;;;;;;;;;;;;;;;5115467;27;1952;-39
2023/04/18 06:47:11;;;;;;;;;;;;;;;;;;5123159;27;1850;-43
2023/04/18 06:49:40;;;;;;;;;;;;;;;;;;5115010;28;1509;-40
2023/04/18 06:52:07;;;;;;;;;;;;;;;;;;5114803;27;1642;-39
2023/04/18 06:54:35;;;;;;;;;;;;;;;;;;5113792;27;1648;-38
2023/04/18 06:57:03;;;;;;;;;;;;;;;;;;5114036;28;1443;-39
2023/04/18 06:59:30;;;;;;;;;;;;;;;;;;5113403;28;2242;-39
2023/04/18 07:01:57;;;;;;;;;;;;;;;;;;5125428;27;1835;-40
2023/04/18 07:04:24;;;;;;;;;;;;;;;;;;5113750;28;1955;-40
2023/04/18 07:06:52;;;;;;;;;;;;;;;;;;5114199;28;2252;-40
2023/04/18 07:09:19;;;;;;;;;;;;;;;;;;5125131;27;1745;-42
2023/04/18 07:11:46;;;;;;;;;;;;;;;;;;5134390;27;2006;-46
2023/04/18 07:14:13;;;;;;;;;;;;;;;;;;5134261;27;1971;-40
2023/04/18 07:16:41;;;;;;;;;;;;;;;;;;5134522;27;1849;-41
2023/04/18 07:19:08;;;;;;;;;;;;;;;;;;5134469;27;2022;-40
2023/04/18 07:21:37;;;;;;;;;;;;;;;;;;5134438;27;1979;-40
2023/04/18 07:24:04;;;;;;;;;;;;;;;;;;5134334;27;2174;-40
2023/04/18 07:26:31;;;;;;;;;;;;;;;;;;5134392;27;2023;-43
2023/04/18 07:28:59;;;;;;;;;;;;;;;;;;5134418;27;2125;-40
2023/04/18 07:31:27;;;;;;;;;;;;;;;;;;5134074;27;1448;-39
2023/04/18 07:33:54;;;;;;;;;;;;;;;;;;5134057;27;1965;-40
2023/04/18 07:36:21;;;;;;;;;;;;;;;;;;5134482;27;1761;-41
2023/04/18 07:38:50;;;;;;;;;;;;;;;;;;5133712;27;1724;-41
2023/04/18 07:41:17;;;;;;;;;;;;;;;;;;5133959;27;2070;-40
2023/04/18 07:43:44;;;;;;;;;;;;;;;;;;5134090;27;1860;-47
2023/04/18 07:46:12;;;;;;;;;;;;;;;;;;5134126;27;2193;-40
2023/04/18 07:48:39;;;;;;;;;;;;;;;;;;5114172;27;1836;-40
2023/04/18 07:51:06;;;;;;;;;;;;;;;;;;5113219;28;1942;-40
2023/04/18 07:53:33;;;;;;;;;;;;;;;;;;5112947;28;2099;-40
2023/04/18 07:56:01;;;;;;;;;;;;;;;;;;5113101;28;1673;-39
2023/04/18 07:58:28;;;;;;;;;;;;;;;;;;5112922;28;2133;-40
2023/04/18 08:00:55;;;;;;;;;;;;;;;;;;5113355;28;2107;-39
2023/04/18 08:03:22;;;;;;;;;;;;;;;;;;5095305;28;1714;-41
2023/04/18 08:05:50;;;;;;;;;;;;;;;;;;5112796;28;1932;-40
2023/04/18 08:08:18;;;;;;;;;;;;;;;;;;5122977;27;1835;-40
2023/04/18 08:10:45;;;;;;;;;;;;;;;;;;5132481;27;1747;-40
2023/04/18 08:13:12;;;;;;;;;;;;;;;;;;5133511;27;2371;-40
2023/04/18 08:15:40;;;;;;;;;;;;;;;;;;5133177;27;2090;-39
2023/04/18 08:18:07;;;;;;;;;;;;;;;;;;5133237;27;1854;-40
2023/04/18 08:20:37;;;;;;;;;;;;;;;;;;5132929;27;1999;-39
2023/04/18 08:23:04;;;;;;;;;;;;;;;;;;5133204;27;1822;-39
2023/04/18 08:25:35;;;;;;;;;;;;;;;;;;5133057;27;1732;-39
2023/04/18 08:28:02;;;;;;;;;;;;;;;;;;5133013;27;1963;-39
2023/04/18 08:30:30;;;;;;;;;;;;;;;;;;5133140;27;2253;-40
2023/04/18 08:33:00;;;;;;;;;;;;;;;;;;5133156;27;1841;-40
2023/04/18 08:35:27;;;;;;;;;;;;;;;;;;5133239;27;1667;-40
2023/04/18 08:37:54;;;;;;;;;;;;;;;;;;5133285;27;1767;-40
2023/04/18 08:40:22;;;;;;;;;;;;;;;;;;5132874;27;1974;-40
2023/04/18 08:42:51;;;;;;;;;;;;;;;;;;5132874;27;2576;-57
2023/04/18 08:45:18;;;;;;;;;;;;;;;;;;5132570;27;2117;-41
2023/04/18 08:47:45;;;;;;;;;;;;;;;;;;5120482;27;2205;-40
2023/04/18 08:50:13;;;;;;;;;;;;;;;;;;5112122;28;2002;-41
2023/04/18 08:52:43;;;;;;;;;;;;;;;;;;5112248;28;2045;-48
2023/04/18 08:55:11;;;;;;;;;;;;;;;;;;5112251;28;2192;-40
2023/04/18 08:57:38;;;;;;;;;;;;;;;;;;5112067;28;1441;-40
2023/04/18 09:00:09;;;;;;;;;;;;;;;;;;5111740;28;2005;-40
2023/04/18 09:02:43;;;;;;;;;;;;;;;;;;5112050;28;2261;-39
2023/04/18 09:05:12;;;;;;;;;;;;;;;;;;5111732;28;2196;-40
2023/04/18 09:07:40;;;;;;;;;;;;;;;;;;5111907;28;2368;-42
2023/04/18 09:10:08;;;;;;;;;;;;;;;;;;5110721;28;1585;-39
2023/04/18 09:12:49;;;;;;;;;;;;;;;;;;5108783;28;1752;-39
2023/04/18 09:15:19;;;;;;;;;;;;;;;;;;5109662;28;1760;-40
2023/04/18 09:17:50;;;;;;;;;;;;;;;;;;5109469;28;2102;-39
2023/04/18 09:20:43;;;;;;;;;;;;;;;;;;5109144;28;1996;-39
2023/04/18 09:23:13;;;;;;;;;;;;;;;;;;5109659;28;1779;-41
2023/04/18 09:25:41;;;;;;;;;;;;;;;;;;5109566;28;2069;-40
2023/04/18 09:28:30;;;;;;;;;;;;;;;;;;5111474;28;1749;-41
2023/04/18 09:30:58;;;;;;;;;;;;;;;;;;5111707;28;1834;-39
2023/04/18 09:33:32;;;;;;;;;;;;;;;;;;5111746;28;1685;-40
2023/04/18 09:36:18;;;;;;;;;;;;;;;;;;5111462;28;2424;-40
2023/04/18 09:38:48;;;;;;;;;;;;;;;;;;5111407;28;2154;-40
2023/04/18 09:41:17;;;;;;;;;;;;;;;;;;5111459;28;1976;-40
2023/04/18 09:43:47;;;;;;;;;;;;;;;;;;5111311;28;1562;-40
2023/04/18 09:46:16;;;;;;;;;;;;;;;;;;5111165;28;1908;-41
2023/04/18 09:48:43;;;;;;;;;;;;;;;;;;5111060;28;1955;-39
2023/04/18 09:51:13;;;;;;;;;;;;;;;;;;5111300;28;2134;-40
2023/04/18 09:53:46;;;;;;;;;;;;;;;;;;5111124;28;2078;-39
2023/04/18 09:56:18;;;;;;;;;;;;;;;;;;5110979;28;1497;-40
2023/04/18 09:58:46;;;;;;;;;;;;;;;;;;5111411;28;1948;-40
2023/04/18 10:01:13;;;;;;;;;;;;;;;;;;5111135;28;1922;-39
2023/04/18 10:03:43;;;;;;;;;;;;;;;;;;5111420;28;2081;-40
2023/04/18 10:06:15;;;;;;;;;;;;;;;;;;5111179;28;2051;-40
2023/04/18 10:08:46;;;;;;;;;;;;;;;;;;5111014;28;1977;-40
2023/04/18 10:11:14;;;;;;;;;;;;;;;;;;5111147;28;2099;-40
2023/04/18 10:13:43;;;;;;;;;;;;;;;;;;5111125;28;1851;-40
2023/04/18 10:16:10;;;;;;;;;;;;;;;;;;5110985;28;2004;-41
2023/04/18 10:18:37;;;;;;;;;;;;;;;;;;5111296;28;1826;-39
2023/04/18 10:21:05;;;;;;;;;;;;;;;;;;5110976;28;2127;-40
2023/04/18 10:23:34;;;;;;;;;;;;;;;;;;5111479;28;2088;-40
2023/04/18 10:26:08;;;;;;;;;;;;;;;;;;5110184;28;2085;-40
2023/04/18 10:28:57;;;;;;;;;;;;;;;;;;5111128;28;1638;-40
2023/04/18 10:31:25;;;;;;;;;;;;;;;;;;5110870;28;2156;-41
2023/04/18 10:33:56;;;;;;;;;;;;;;;;;;5112390;28;1600;-39
2023/04/18 10:36:27;;;;;;;;;;;;;;;;;;5114366;28;2260;-52
2023/04/18 10:38:55;;;;;;;;;;;;;;;;;;5114833;28;2129;-59
2023/04/18 10:41:25;;;;;;;;;;;;;;;;;;5114658;28;2059;-40
2023/04/18 10:44:08;;;;;;;;;;;;;;;;;;5114898;28;2293;-40
2023/04/18 10:46:36;;;;;;;;;;;;;;;;;;5116587;27;1962;-40
2023/04/18 10:49:13;;;;;;;;;;;;;;;;;;5135675;27;1952;-39
2023/04/18 10:51:45;;;;;;;;;;;;;;;;;;5135232;27;2104;-39
2023/04/18 10:54:27;;;;;;;;;;;;;;;;;;5135053;27;1907;-39
2023/04/18 10:57:00;;;;;;;;;;;;;;;;;;5134733;27;1670;-40
2023/04/18 10:59:28;;;;;;;;;;;;;;;;;;5134734;27;1813;-39
2023/04/18 11:01:56;;;;;;;;;;;;;;;;;;5134436;27;2258;-40
2023/04/18 11:04:24;;;;;;;;;;;;;;;;;;5119291;27;1888;-39
2023/04/18 11:06:54;;;;;;;;;;;;;;;;;;5114198;28;1972;-40
2023/04/18 11:09:22;;;;;;;;;;;;;;;;;;5113944;28;1838;-40
2023/04/18 11:12:06;;;;;;;;;;;;;;;;;;5113523;28;2068;-40
2023/04/18 11:14:40;;;;;;;;;;;;;;;;;;5113505;28;1992;-44
2023/04/18 11:17:16;;;;;;;;;;;;;;;;;;5130399;27;2036;-40
2023/04/18 11:19:46;;;;;;;;;;;;;;;;;;5134394;27;1632;-40
2023/04/18 11:22:17;;;;;;;;;;;;;;;;;;5134298;27;1964;-39
2023/04/18 11:24:45;;;;;;;;;;;;;;;;;;5134557;27;1492;-39
2023/04/18 11:27:13;;;;;;;;;;;;;;;;;;5134349;27;2292;-40
2023/04/18 11:29:41;;;;;;;;;;;;;;;;;;5134243;27;1749;-39
2023/04/18 11:32:09;;;;;;;;;;;;;;;;;;5134122;27;1964;-40
2023/04/18 11:34:36;;;;;;;;;;;;;;;;;;5134203;27;2152;-40
2023/04/18 11:37:07;;;;;;;;;;;;;;;;;;5115627;27;1820;-39
2023/04/18 11:39:35;;;;;;;;;;;;;;;;;;5134258;27;2069;-39
2023/04/18 11:42:02;;;;;;;;;;;;;;;;;;5134128;27;1909;-44
2023/04/18 11:44:29;;;;;;;;;;;;;;;;;;5133607;27;2127;-41
2023/04/18 11:46:56;;;;;;;;;;;;;;;;;;5128984;27;2124;-39
2023/04/18 11:49:32;;;;;;;;;;;;;;;;;;5113564;28;1412;-39
2023/04/18 11:52:02;;;;;;;;;;;;;;;;;;5113281;28;2162;-39
2023/04/18 11:54:39;;;;;;;;;;;;;;;;;;5113438;28;1627;-41
2023/04/18 11:57:17;;;;;;;;;;;;;;;;;;5112803;28;1872;-41
2023/04/18 11:59:48;;;;;;;;;;;;;;;;;;5113111;28;1839;-40
2023/04/18 12:02:16;;;;;;;;;;;;;;;;;;5112991;28;2132;-40
2023/04/18 12:04:54;;;;;;;;;;;;;;;;;;5112999;28;1969;-39
2023/04/18 12:07:29;;;;;;;;;;;;;;;;;;5113149;28;2134;-50
2023/04/18 12:09:57;;;;;;;;;;;;;;;;;;5113429;28;2099;-40
2023/04/18 12:12:24;;;;;;;;;;;;;;;;;;5113095;28;2117;-40
2023/04/18 12:15:01;;;;;;;;;;;;;;;;;;5112824;28;1831;-39
2023/04/18 12:17:29;;;;;;;;;;;;;;;;;;5112623;28;1996;-40
2023/04/18 12:20:00;;;;;;;;;;;;;;;;;;5112497;28;1952;-41
2023/04/18 12:22:48;;;;;;;;;;;;;;;;;;5112617;28;1980;-39
2023/04/18 12:25:23;;;;;;;;;;;;;;;;;;5112772;28;1801;-39
2023/04/18 12:28:00;;;;;;;;;;;;;;;;;;5112447;28;1932;-40
2023/04/18 12:30:28;;;;;;;;;;;;;;;;;;5112480;28;2214;-57
2023/04/18 12:32:56;;;;;;;;;;;;;;;;;;5112685;28;1999;-39
2023/04/18 12:35:24;;;;;;;;;;;;;;;;;;5112770;28;1831;-40
2023/04/18 12:37:52;;;;;;;;;;;;;;;;;;5112238;28;1840;-46
2023/04/18 12:40:21;;;;;;;;;;;;;;;;;;5112260;28;1492;-41
2023/04/18 12:42:50;;;;;;;;;;;;;;;;;;5111970;28;1968;-41
2023/04/18 12:45:18;;;;;;;;;;;;;;;;;;5112783;28;1963;-41
2023/04/18 12:47:46;;;;;;;;;;;;;;;;;;5111834;28;1413;-38
2023/04/18 12:50:17;;;;;;;;;;;;;;;;;;5112248;28;2020;-40
2023/04/18 12:52:46;;;;;;;;;;;;;;;;;;5110705;28;1837;-39
2023/04/18 12:55:14;;;;;;;;;;;;;;;;;;5111309;28;1975;-39
2023/04/18 12:57:42;;;;;;;;;;;;;;;;;;5111002;28;1814;-39
2023/04/18 13:00:10;;;;;;;;;;;;;;;;;;5112675;28;2007;-39
2023/04/18 13:02:42;;;;;;;;;;;;;;;;;;5111902;28;1976;-39
2023/04/18 13:05:11;;;;;;;;;;;;;;;;;;5112079;28;1623;-39
2023/04/18 13:07:39;;;;;;;;;;;;;;;;;;5111557;28;2046;-40
2023/04/18 13:10:07;;;;;;;;;;;;;;;;;;5112005;28;1815;-43
2023/04/18 13:12:35;;;;;;;;;;;;;;;;;;5112060;28;1606;-51
2023/04/18 13:15:02;;;;;;;;;;;;;;;;;;5111947;28;1728;-50
2023/04/18 13:17:29;;;;;;;;;;;;;;;;;;5111752;28;1987;-40
2023/04/18 13:19:57;;;;;;;;;;;;;;;;;;5111834;28;1939;-54
2023/04/18 13:22:24;;;;;;;;;;;;;;;;;;5111818;28;1961;-40
2023/04/18 13:24:51;;;;;;;;;;;;;;;;;;5111568;28;1824;-48
2023/04/18 13:27:19;;;;;;;;;;;;;;;;;;5111740;28;2045;-42
2023/04/18 13:29:46;;;;;;;;;;;;;;;;;;5111831;28;1910;-51
2023/04/18 13:32:13;;;;;;;;;;;;;;;;;;5111869;28;2082;-50
2023/04/18 13:34:44;;;;;;;;;;;;;;;;;;5111706;28;2141;-52
2023/04/18 13:37:12;;;;;;;;;;;;;;;;;;5111494;28;1749;-39
2023/04/18 13:39:39;;;;;;;;;;;;;;;;;;5111273;28;2077;-39
2023/04/18 13:42:06;;;;;;;;;;;;;;;;;;5111639;28;2216;-39
2023/04/18 13:44:34;;;;;;;;;;;;;;;;;;5111601;28;1486;-40
2023/04/18 13:47:02;;;;;;;;;;;;;;;;;;5116818;28;2184;-39
2023/04/18 13:49:30;;;;;;;;;;;;;;;;;;5132009;28;2357;-38
2023/04/18 13:51:57;;;;;;;;;;;;;;;;;;5131838;28;2255;-56
2023/04/18 13:54:28;;;;;;;;;;;;;;;;;;5131797;28;1763;-40
2023/04/18 13:56:56;;;;;;;;;;;;;;;;;;5131834;28;1927;-40
2023/04/18 13:59:24;;;;;;;;;;;;;;;;;;5131821;28;1839;-40
2023/04/18 14:01:52;;;;;;;;;;;;;;;;;;5131955;28;1910;-50
2023/04/18 14:04:20;;;;;;;;;;;;;;;;;;5131831;28;1938;-40
2023/04/18 14:06:47;;;;;;;;;;;;;;;;;;5131975;28;1711;-39
2023/04/18 14:09:15;;;;;;;;;;;;;;;;;;5133866;27;1498;-39
2023/04/18 14:11:43;;;;;;;;;;;;;;;;;;5135976;27;1866;-40
2023/04/18 14:14:10;;;;;;;;;;;;;;;;;;5135962;27;1849;-40
2023/04/18 14:16:38;;;;;;;;;;;;;;;;;;5135706;27;1384;-42
2023/04/18 14:19:07;;;;;;;;;;;;;;;;;;5135453;27;2072;-39
2023/04/18 14:21:35;;;;;;;;;;;;;;;;;;5135764;27;2379;-40
2023/04/18 14:24:02;;;;;;;;;;;;;;;;;;5135638;27;2002;-38
2023/04/18 14:26:30;;;;;;;;;;;;;;;;;;5135730;27;2332;-40
2023/04/18 14:28:57;;;;;;;;;;;;;;;;;;5135845;27;1856;-45
2023/04/18 14:31:24;;;;;;;;;;;;;;;;;;5135400;27;2207;-39
2023/04/18 14:33:52;;;;;;;;;;;;;;;;;;5135484;27;2022;-39
2023/04/18 14:36:19;;;;;;;;;;;;;;;;;;5135438;27;2103;-39
2023/04/18 14:38:47;;;;;;;;;;;;;;;;;;5135271;27;1814;-39
2023/04/18 14:41:15;;;;;;;;;;;;;;;;;;5135337;27;1902;-42
2023/04/18 14:43:42;;;;;;;;;;;;;;;;;;5135202;27;2204;-40
2023/04/18 14:46:11;;;;;;;;;;;;;;;;;;5135418;27;1236;-40
2023/04/18 14:48:38;;;;;;;;;;;;;;;;;;5115666;27;2001;-40
2023/04/18 14:51:05;;;;;;;;;;;;;;;;;;5114491;28;1573;-38
2023/04/18 14:53:32;;;;;;;;;;;;;;;;;;5114303;28;1854;-40
2023/04/18 14:56:00;;;;;;;;;;;;;;;;;;5114396;28;1816;-42
2023/04/18 14:58:27;;;;;;;;;;;;;;;;;;5114137;28;2046;-46
2023/04/18 15:00:54;;;;;;;;;;;;;;;;;;5114341;28;1878;-39
2023/04/18 15:03:21;;;;;;;;;;;;;;;;;;5114576;28;1913;-39
2023/04/18 15:05:49;;;;;;;;;;;;;;;;;;5114717;28;1849;-38
2023/04/18 15:08:16;;;;;;;;;;;;;;;;;;5114181;28;1576;-40
2023/04/18 15:10:44;;;;;;;;;;;;;;;;;;5114301;28;1635;-38
2023/04/18 15:13:11;;;;;;;;;;;;;;;;;;5114320;28;2029;-40
2023/04/18 15:15:38;;;;;;;;;;;;;;;;;;5114125;28;1856;-40
2023/04/18 15:18:06;;;;;;;;;;;;;;;;;;5113939;28;1847;-39
2023/04/18 15:20:35;;;;;;;;;;;;;;;;;;5113136;28;2176;-40
2023/04/18 15:23:03;;;;;;;;;;;;;;;;;;5132173;27;1937;-40
2023/04/18 15:25:30;;;;;;;;;;;;;;;;;;5134466;27;2195;-43
2023/04/18 15:27:57;;;;;;;;;;;;;;;;;;5134655;27;1637;-48
2023/04/18 15:30:24;;;;;;;;;;;;;;;;;;5134264;27;1360;-49
2023/04/18 15:32:52;;;;;;;;;;;;;;;;;;5134511;27;2246;-40
2023/04/18 15:35:20;;;;;;;;;;;;;;;;;;5134498;27;1319;-40
2023/04/18 15:37:48;;;;;;;;;;;;;;;;;;5128820;27;1735;-38
2023/04/18 15:40:17;;;;;;;;;;;;;;;;;;5113541;28;2152;-39
2023/04/18 15:42:44;;;;;;;;;;;;;;;;;;5113434;28;1914;-40
2023/04/18 15:45:11;;;;;;;;;;;;;;;;;;5113663;28;1797;-40
2023/04/18 15:47:40;;;;;;;;;;;;;;;;;;5113321;28;1690;-39
2023/04/18 15:50:07;;;;;;;;;;;;;;;;;;5113474;28;2007;-38
2023/04/18 15:52:35;;;;;;;;;;;;;;;;;;5113288;28;1806;-40
2023/04/18 15:55:04;;;;;;;;;;;;;;;;;;5113551;28;1699;-40
2023/04/18 15:57:31;;;;;;;;;;;;;;;;;;5113553;28;1682;-40
2023/04/18 15:59:58;;;;;;;;;;;;;;;;;;5113263;28;1750;-39
2023/04/18 16:02:25;;;;;;;;;;;;;;;;;;5113379;28;2275;-40
2023/04/18 16:04:53;;;;;;;;;;;;;;;;;;5113300;28;2168;-40
2023/04/18 16:07:20;;;;;;;;;;;;;;;;;;5113008;28;1845;-47
2023/04/18 16:09:47;;;;;;;;;;;;;;;;;;5113158;28;1996;-44
2023/04/18 16:12:15;;;;;;;;;;;;;;;;;;5113122;28;1507;-46
2023/04/18 16:14:42;;;;;;;;;;;;;;;;;;5112953;28;1714;-43
2023/04/18 16:17:09;;;;;;;;;;;;;;;;;;5113175;28;2149;-41
2023/04/18 16:19:37;;;;;;;;;;;;;;;;;;5112417;28;1409;-44
2023/04/18 16:22:06;;;;;;;;;;;;;;;;;;5112476;28;1910;-49
2023/04/18 16:24:33;;;;;;;;;;;;;;;;;;5112807;28;1437;-48
2023/04/18 16:27:01;;;;;;;;;;;;;;;;;;5112632;28;2295;-48
2023/04/18 16:29:28;;;;;;;;;;;;;;;;;;5112575;28;1610;-39
2023/04/18 16:31:55;;;;;;;;;;;;;;;;;;5111823;28;1825;-40
2023/04/18 16:34:23;;;;;;;;;;;;;;;;;;5112747;28;2130;-44
2023/04/18 16:36:50;;;;;;;;;;;;;;;;;;5112617;28;1820;-53
2023/04/18 16:39:18;;;;;;;;;;;;;;;;;;5112446;28;1827;-40
2023/04/18 16:41:45;;;;;;;;;;;;;;;;;;5112333;28;1949;-40
2023/04/18 16:44:12;;;;;;;;;;;;;;;;;;5112394;28;2286;-39
2023/04/18 16:46:40;;;;;;;;;;;;;;;;;;5114685;27;1859;-40
2023/04/18 16:49:07;;;;;;;;;;;;;;;;;;5132791;27;1761;-40
2023/04/18 16:51:36;;;;;;;;;;;;;;;;;;5132865;27;2123;-38
2023/04/18 16:54:03;;;;;;;;;;;;;;;;;;5132902;27;2014;-39
2023/04/18 16:56:30;;;;;;;;;;;;;;;;;;5133028;27;1603;-40
2023/04/18 16:59:00;;;;;;;;;;;;;;;;;;5133147;27;1919;-40
2023/04/18 17:01:27;;;;;;;;;;;;;;;;;;5132761;27;1674;-41
2023/04/18 17:03:55;;;;;;;;;;;;;;;;;;5132688;27;1947;-40
2023/04/18 17:06:23;;;;;;;;;;;;;;;;;;5132724;27;2093;-39
2023/04/18 17:08:52;;;;;;;;;;;;;;;;;;5132355;27;1858;-40
2023/04/18 17:11:19;;;;;;;;;;;;;;;;;;5132466;27;1658;-39
2023/04/18 17:13:48;;;;;;;;;;;;;;;;;;5132200;27;1254;-40